sensor_id;sensor_type;location;lat;lon;timestamp;temperature;humidity
63931;DHT22;50111;48.114;-2.066;2022-10-31T00:01:52;12.60;99.90
63931;DHT22;50111;48.114;-2.066;2022-10-31T00:04:17;12.70;99.90
63931;DHT22;50111;48.114;-2.066;2022-10-31T00:06:43;12.70;99.90
63931;DHT22;50111;48.114;-2.066;2022-10-31T00:09:09;12.70;99.90
63931;DHT22;50111;48.114;-2.066;2022-10-31T00:11:34;12.70;99.90
63931;DHT22;50111;48.114;-2.066;2022-10-31T00:14:00;12.80;99.90
63931;DHT22;50111;48.114;-2.066;2022-10-31T00:16:26;12.80;99.90
63931;DHT22;50111;48.114;-2.066;2022-10-31T00:18:53;12.90;99.90
63931;DHT22;50111;48.114;-2.066;2022-10-31T00:21:19;12.90;99.90
63931;DHT22;50111;48.114;-2.066;2022-10-31T00:23:45;12.80;99.90
63931;DHT22;50111;48.114;-2.066;2022-10-31T00:26:10;12.90;99.90
63931;DHT22;50111;48.114;-2.066;2022-10-31T00:28:36;12.70;99.90
63931;DHT22;50111;48.114;-2.066;2022-10-31T00:31:02;12.60;99.90
63931;DHT22;50111;48.114;-2.066;2022-10-31T00:33:28;12.50;99.90
63931;DHT22;50111;48.114;-2.066;2022-10-31T00:35:54;12.20;99.90
63931;DHT22;50111;48.114;-2.066;2022-10-31T00:38:19;12.30;99.90
63931;DHT22;50111;48.114;-2.066;2022-10-31T00:40:45;12.40;99.90
63931;DHT22;50111;48.114;-2.066;2022-10-31T00:43:10;12.40;99.90
63931;DHT22;50111;48.114;-2.066;2022-10-31T00:45:36;12.50;99.90
63931;DHT22;50111;48.114;-2.066;2022-10-31T00:48:01;12.50;99.90
63931;DHT22;50111;48.114;-2.066;2022-10-31T00:50:27;12.40;99.90
63931;DHT22;50111;48.114;-2.066;2022-10-31T00:52:52;12.40;99.90
63931;DHT22;50111;48.114;-2.066;2022-10-31T00:55:18;12.40;99.90
63931;DHT22;50111;48.114;-2.066;2022-10-31T00:57:45;12.40;99.90
63931;DHT22;50111;48.114;-2.066;2022-10-31T01:00:11;12.50;99.90
63931;DHT22;50111;48.114;-2.066;2022-10-31T01:02:37;12.50;99.90
63931;DHT22;50111;48.114;-2.066;2022-10-31T01:05:02;12.40;99.90
63931;DHT22;50111;48.114;-2.066;2022-10-31T01:07:28;12.40;99.90
63931;DHT22;50111;48.114;-2.066;2022-10-31T01:09:53;12.40;99.90
63931;DHT22;50111;48.114;-2.066;2022-10-31T01:12:19;12.30;99.90
63931;DHT22;50111;48.114;-2.066;2022-10-31T01:14:44;12.30;99.90
63931;DHT22;50111;48.114;-2.066;2022-10-31T01:17:10;12.20;99.90
63931;DHT22;50111;48.114;-2.066;2022-10-31T01:19:36;12.30;99.90
63931;DHT22;50111;48.114;-2.066;2022-10-31T01:22:01;12.30;99.90
63931;DHT22;50111;48.114;-2.066;2022-10-31T01:24:27;12.40;99.90
63931;DHT22;50111;48.114;-2.066;2022-10-31T01:26:52;12.40;99.90
63931;DHT22;50111;48.114;-2.066;2022-10-31T01:29:18;12.40;99.90
63931;DHT22;50111;48.114;-2.066;2022-10-31T01:31:44;12.40;99.90
63931;DHT22;50111;48.114;-2.066;2022-10-31T01:34:13;12.30;99.90
63931;DHT22;50111;48.114;-2.066;2022-10-31T01:36:39;12.30;99.90
63931;DHT22;50111;48.114;-2.066;2022-10-31T01:39:06;12.20;99.90
63931;DHT22;50111;48.114;-2.066;2022-10-31T01:41:34;12.40;99.90
63931;DHT22;50111;48.114;-2.066;2022-10-31T01:46:30;12.50;99.90
63931;DHT22;50111;48.114;-2.066;2022-10-31T01:48:58;12.50;99.90
63931;DHT22;50111;48.114;-2.066;2022-10-31T01:51:26;12.60;99.90
63931;DHT22;50111;48.114;-2.066;2022-10-31T01:53:54;12.50;99.90
63931;DHT22;50111;48.114;-2.066;2022-10-31T01:56:20;12.50;99.90
63931;DHT22;50111;48.114;-2.066;2022-10-31T01:58:46;12.50;99.90
63931;DHT22;50111;48.114;-2.066;2022-10-31T02:01:12;12.60;99.90
63931;DHT22;50111;48.114;-2.066;2022-10-31T02:03:39;12.60;99.90
63931;DHT22;50111;48.114;-2.066;2022-10-31T02:06:05;12.70;99.90
63931;DHT22;50111;48.114;-2.066;2022-10-31T02:08:33;12.70;99.90
63931;DHT22;50111;48.114;-2.066;2022-10-31T02:10:59;12.70;99.90
63931;DHT22;50111;48.114;-2.066;2022-10-31T02:13:26;12.50;99.90
63931;DHT22;50111;48.114;-2.066;2022-10-31T02:15:54;12.60;99.90
63931;DHT22;50111;48.114;-2.066;2022-10-31T02:18:20;12.60;99.90
63931;DHT22;50111;48.114;-2.066;2022-10-31T02:33:36;12.80;99.90
63931;DHT22;50111;48.114;-2.066;2022-10-31T02:36:07;12.80;99.90
63931;DHT22;50111;48.114;-2.066;2022-10-31T02:41:26;12.70;99.90
63931;DHT22;50111;48.114;-2.066;2022-10-31T02:44:11;12.60;99.90
63931;DHT22;50111;48.114;-2.066;2022-10-31T02:49:15;12.50;99.90
63931;DHT22;50111;48.114;-2.066;2022-10-31T02:51:43;12.70;99.90
63931;DHT22;50111;48.114;-2.066;2022-10-31T02:54:21;12.80;99.90
63931;DHT22;50111;48.114;-2.066;2022-10-31T02:56:47;12.80;99.90
63931;DHT22;50111;48.114;-2.066;2022-10-31T02:59:14;12.90;99.90
63931;DHT22;50111;48.114;-2.066;2022-10-31T03:01:45;13.00;99.90
63931;DHT22;50111;48.114;-2.066;2022-10-31T03:04:16;12.90;99.90
63931;DHT22;50111;48.114;-2.066;2022-10-31T03:06:45;13.00;99.90
63931;DHT22;50111;48.114;-2.066;2022-10-31T03:09:19;12.90;99.90
63931;DHT22;50111;48.114;-2.066;2022-10-31T03:11:55;12.90;99.90
63931;DHT22;50111;48.114;-2.066;2022-10-31T03:14:26;12.90;99.90
63931;DHT22;50111;48.114;-2.066;2022-10-31T03:16:53;13.00;99.90
63931;DHT22;50111;48.114;-2.066;2022-10-31T03:19:25;13.00;99.90
63931;DHT22;50111;48.114;-2.066;2022-10-31T03:21:57;13.10;99.90
63931;DHT22;50111;48.114;-2.066;2022-10-31T03:24:26;13.10;99.90
63931;DHT22;50111;48.114;-2.066;2022-10-31T03:26:53;13.10;99.90
63931;DHT22;50111;48.114;-2.066;2022-10-31T03:29:20;13.10;99.90
63931;DHT22;50111;48.114;-2.066;2022-10-31T03:31:49;13.10;99.90
63931;DHT22;50111;48.114;-2.066;2022-10-31T03:34:15;13.10;99.90
63931;DHT22;50111;48.114;-2.066;2022-10-31T03:36:43;13.00;99.90
63931;DHT22;50111;48.114;-2.066;2022-10-31T03:39:11;13.00;99.90
63931;DHT22;50111;48.114;-2.066;2022-10-31T03:41:39;13.10;99.90
63931;DHT22;50111;48.114;-2.066;2022-10-31T03:44:07;13.00;99.90
63931;DHT22;50111;48.114;-2.066;2022-10-31T03:46:34;13.00;99.90
63931;DHT22;50111;48.114;-2.066;2022-10-31T03:48:59;13.00;99.90
63931;DHT22;50111;48.114;-2.066;2022-10-31T03:53:57;13.00;99.90
63931;DHT22;50111;48.114;-2.066;2022-10-31T03:56:36;13.00;99.90
63931;DHT22;50111;48.114;-2.066;2022-10-31T03:59:07;13.00;99.90
63931;DHT22;50111;48.114;-2.066;2022-10-31T04:01:34;13.00;99.90
63931;DHT22;50111;48.114;-2.066;2022-10-31T04:04:02;12.90;99.90
63931;DHT22;50111;48.114;-2.066;2022-10-31T04:06:28;12.90;99.90
63931;DHT22;50111;48.114;-2.066;2022-10-31T04:08:56;12.90;99.90
63931;DHT22;50111;48.114;-2.066;2022-10-31T04:11:23;12.90;99.90
63931;DHT22;50111;48.114;-2.066;2022-10-31T04:13:49;12.80;99.90
63931;DHT22;50111;48.114;-2.066;2022-10-31T04:16:15;12.80;99.90
63931;DHT22;50111;48.114;-2.066;2022-10-31T04:18:40;12.80;99.90
63931;DHT22;50111;48.114;-2.066;2022-10-31T04:21:07;12.90;99.90
63931;DHT22;50111;48.114;-2.066;2022-10-31T04:23:33;12.90;99.90
63931;DHT22;50111;48.114;-2.066;2022-10-31T04:25:59;12.80;99.90
63931;DHT22;50111;48.114;-2.066;2022-10-31T04:28:24;12.80;99.90
63931;DHT22;50111;48.114;-2.066;2022-10-31T04:30:50;12.80;99.90
63931;DHT22;50111;48.114;-2.066;2022-10-31T04:33:16;12.80;99.90
63931;DHT22;50111;48.114;-2.066;2022-10-31T04:35:42;12.70;99.90
63931;DHT22;50111;48.114;-2.066;2022-10-31T04:38:07;12.70;99.90
63931;DHT22;50111;48.114;-2.066;2022-10-31T04:40:33;12.70;99.90
63931;DHT22;50111;48.114;-2.066;2022-10-31T04:42:58;12.70;99.90
63931;DHT22;50111;48.114;-2.066;2022-10-31T04:45:24;12.60;99.90
63931;DHT22;50111;48.114;-2.066;2022-10-31T04:47:49;12.60;99.90
63931;DHT22;50111;48.114;-2.066;2022-10-31T04:50:15;12.60;99.90
63931;DHT22;50111;48.114;-2.066;2022-10-31T04:52:44;12.60;99.90
63931;DHT22;50111;48.114;-2.066;2022-10-31T04:55:10;12.60;99.90
63931;DHT22;50111;48.114;-2.066;2022-10-31T04:57:42;12.70;99.90
63931;DHT22;50111;48.114;-2.066;2022-10-31T05:00:08;12.70;99.90
63931;DHT22;50111;48.114;-2.066;2022-10-31T05:02:34;12.70;99.90
63931;DHT22;50111;48.114;-2.066;2022-10-31T05:05:07;12.70;99.90
63931;DHT22;50111;48.114;-2.066;2022-10-31T05:07:32;12.80;99.90
63931;DHT22;50111;48.114;-2.066;2022-10-31T05:09:58;12.70;99.90
63931;DHT22;50111;48.114;-2.066;2022-10-31T05:12:23;12.70;99.90
63931;DHT22;50111;48.114;-2.066;2022-10-31T05:14:49;12.70;99.90
63931;DHT22;50111;48.114;-2.066;2022-10-31T05:17:14;12.70;99.90
63931;DHT22;50111;48.114;-2.066;2022-10-31T05:19:40;12.70;99.90
63931;DHT22;50111;48.114;-2.066;2022-10-31T05:22:05;12.70;99.90
63931;DHT22;50111;48.114;-2.066;2022-10-31T05:24:30;12.70;99.90
63931;DHT22;50111;48.114;-2.066;2022-10-31T05:26:56;12.80;99.90
63931;DHT22;50111;48.114;-2.066;2022-10-31T05:29:21;12.70;99.90
63931;DHT22;50111;48.114;-2.066;2022-10-31T05:31:47;12.70;99.90
63931;DHT22;50111;48.114;-2.066;2022-10-31T05:34:12;12.80;99.90
63931;DHT22;50111;48.114;-2.066;2022-10-31T05:36:38;12.70;99.90
63931;DHT22;50111;48.114;-2.066;2022-10-31T05:39:03;12.70;99.90
63931;DHT22;50111;48.114;-2.066;2022-10-31T05:41:29;12.70;99.90
63931;DHT22;50111;48.114;-2.066;2022-10-31T05:43:55;12.70;99.90
63931;DHT22;50111;48.114;-2.066;2022-10-31T05:46:20;12.70;99.90
63931;DHT22;50111;48.114;-2.066;2022-10-31T05:48:46;12.80;99.90
63931;DHT22;50111;48.114;-2.066;2022-10-31T05:51:12;12.70;99.90
63931;DHT22;50111;48.114;-2.066;2022-10-31T05:53:37;12.80;99.90
63931;DHT22;50111;48.114;-2.066;2022-10-31T05:56:03;12.80;99.90
63931;DHT22;50111;48.114;-2.066;2022-10-31T05:58:28;12.70;99.90
63931;DHT22;50111;48.114;-2.066;2022-10-31T06:00:54;12.70;99.90
63931;DHT22;50111;48.114;-2.066;2022-10-31T06:03:19;12.70;99.90
63931;DHT22;50111;48.114;-2.066;2022-10-31T06:05:45;12.70;99.90
63931;DHT22;50111;48.114;-2.066;2022-10-31T06:08:10;12.80;99.90
63931;DHT22;50111;48.114;-2.066;2022-10-31T06:10:36;12.80;99.90
63931;DHT22;50111;48.114;-2.066;2022-10-31T06:13:01;12.80;99.90
63931;DHT22;50111;48.114;-2.066;2022-10-31T06:15:27;12.80;99.90
63931;DHT22;50111;48.114;-2.066;2022-10-31T06:17:59;12.80;99.90
63931;DHT22;50111;48.114;-2.066;2022-10-31T06:20:24;12.80;99.90
63931;DHT22;50111;48.114;-2.066;2022-10-31T06:22:50;12.90;99.90
63931;DHT22;50111;48.114;-2.066;2022-10-31T06:25:15;12.90;99.90
63931;DHT22;50111;48.114;-2.066;2022-10-31T06:27:41;12.80;99.90
63931;DHT22;50111;48.114;-2.066;2022-10-31T06:30:06;12.80;99.90
63931;DHT22;50111;48.114;-2.066;2022-10-31T06:32:32;12.90;99.90
63931;DHT22;50111;48.114;-2.066;2022-10-31T06:34:58;12.90;99.90
63931;DHT22;50111;48.114;-2.066;2022-10-31T06:37:23;12.80;99.90
63931;DHT22;50111;48.114;-2.066;2022-10-31T06:39:49;12.80;99.90
63931;DHT22;50111;48.114;-2.066;2022-10-31T06:42:15;12.80;99.90
63931;DHT22;50111;48.114;-2.066;2022-10-31T06:44:40;12.80;99.90
63931;DHT22;50111;48.114;-2.066;2022-10-31T06:47:06;12.80;99.90
63931;DHT22;50111;48.114;-2.066;2022-10-31T06:49:31;12.80;99.90
63931;DHT22;50111;48.114;-2.066;2022-10-31T06:51:57;12.80;99.90
63931;DHT22;50111;48.114;-2.066;2022-10-31T06:54:22;12.80;99.90
63931;DHT22;50111;48.114;-2.066;2022-10-31T06:56:48;12.80;99.90
63931;DHT22;50111;48.114;-2.066;2022-10-31T06:59:14;12.80;99.90
63931;DHT22;50111;48.114;-2.066;2022-10-31T07:01:39;12.80;99.90
63931;DHT22;50111;48.114;-2.066;2022-10-31T07:04:05;12.80;99.90
63931;DHT22;50111;48.114;-2.066;2022-10-31T07:06:30;12.80;99.90
63931;DHT22;50111;48.114;-2.066;2022-10-31T07:08:56;12.80;99.90
63931;DHT22;50111;48.114;-2.066;2022-10-31T07:11:21;12.80;99.90
63931;DHT22;50111;48.114;-2.066;2022-10-31T07:13:47;12.80;99.90
63931;DHT22;50111;48.114;-2.066;2022-10-31T07:16:12;12.80;99.90
63931;DHT22;50111;48.114;-2.066;2022-10-31T07:18:39;12.80;99.90
63931;DHT22;50111;48.114;-2.066;2022-10-31T07:21:05;12.80;99.90
63931;DHT22;50111;48.114;-2.066;2022-10-31T07:23:30;12.80;99.90
63931;DHT22;50111;48.114;-2.066;2022-10-31T07:25:56;12.70;99.90
63931;DHT22;50111;48.114;-2.066;2022-10-31T07:28:22;12.80;99.90
63931;DHT22;50111;48.114;-2.066;2022-10-31T07:30:51;12.70;99.90
63931;DHT22;50111;48.114;-2.066;2022-10-31T07:33:17;12.70;99.90
63931;DHT22;50111;48.114;-2.066;2022-10-31T07:35:42;12.80;99.90
63931;DHT22;50111;48.114;-2.066;2022-10-31T07:38:11;12.80;99.90
63931;DHT22;50111;48.114;-2.066;2022-10-31T07:40:37;12.90;99.90
63931;DHT22;50111;48.114;-2.066;2022-10-31T07:43:03;12.90;99.90
63931;DHT22;50111;48.114;-2.066;2022-10-31T07:45:28;12.90;99.90
63931;DHT22;50111;48.114;-2.066;2022-10-31T07:47:54;13.00;99.90
63931;DHT22;50111;48.114;-2.066;2022-10-31T07:50:24;13.00;99.90
63931;DHT22;50111;48.114;-2.066;2022-10-31T07:53:05;13.00;99.90
63931;DHT22;50111;48.114;-2.066;2022-10-31T07:55:31;13.00;99.90
63931;DHT22;50111;48.114;-2.066;2022-10-31T08:00:22;13.20;99.90
63931;DHT22;50111;48.114;-2.066;2022-10-31T08:02:48;13.20;99.90
63931;DHT22;50111;48.114;-2.066;2022-10-31T08:05:14;13.20;99.90
63931;DHT22;50111;48.114;-2.066;2022-10-31T08:07:39;13.20;99.90
63931;DHT22;50111;48.114;-2.066;2022-10-31T08:10:05;13.20;99.90
63931;DHT22;50111;48.114;-2.066;2022-10-31T08:12:30;13.20;99.90
63931;DHT22;50111;48.114;-2.066;2022-10-31T08:14:56;13.20;99.90
63931;DHT22;50111;48.114;-2.066;2022-10-31T08:17:21;13.20;99.90
63931;DHT22;50111;48.114;-2.066;2022-10-31T08:19:47;13.30;99.90
63931;DHT22;50111;48.114;-2.066;2022-10-31T08:22:12;13.30;99.90
63931;DHT22;50111;48.114;-2.066;2022-10-31T08:24:38;13.40;99.90
63931;DHT22;50111;48.114;-2.066;2022-10-31T08:27:03;13.40;99.90
63931;DHT22;50111;48.114;-2.066;2022-10-31T08:29:29;13.40;99.90
63931;DHT22;50111;48.114;-2.066;2022-10-31T08:31:54;13.50;99.90
63931;DHT22;50111;48.114;-2.066;2022-10-31T08:34:20;13.40;99.90
63931;DHT22;50111;48.114;-2.066;2022-10-31T08:36:45;13.40;99.90
63931;DHT22;50111;48.114;-2.066;2022-10-31T08:39:11;13.40;99.90
63931;DHT22;50111;48.114;-2.066;2022-10-31T08:41:36;13.50;99.90
63931;DHT22;50111;48.114;-2.066;2022-10-31T08:44:02;13.50;99.90
63931;DHT22;50111;48.114;-2.066;2022-10-31T08:46:27;13.50;99.90
63931;DHT22;50111;48.114;-2.066;2022-10-31T08:48:53;13.50;99.90
63931;DHT22;50111;48.114;-2.066;2022-10-31T08:51:19;13.50;99.90
63931;DHT22;50111;48.114;-2.066;2022-10-31T08:53:44;13.50;99.90
63931;DHT22;50111;48.114;-2.066;2022-10-31T08:56:10;13.50;99.90
63931;DHT22;50111;48.114;-2.066;2022-10-31T08:58:35;13.50;99.90
63931;DHT22;50111;48.114;-2.066;2022-10-31T09:01:01;13.50;99.90
63931;DHT22;50111;48.114;-2.066;2022-10-31T09:03:27;13.60;99.90
63931;DHT22;50111;48.114;-2.066;2022-10-31T09:05:59;13.50;99.90
63931;DHT22;50111;48.114;-2.066;2022-10-31T09:08:25;13.60;99.90
63931;DHT22;50111;48.114;-2.066;2022-10-31T09:10:51;13.60;99.90
63931;DHT22;50111;48.114;-2.066;2022-10-31T09:13:17;13.60;99.90
63931;DHT22;50111;48.114;-2.066;2022-10-31T09:15:44;13.60;99.90
63931;DHT22;50111;48.114;-2.066;2022-10-31T09:18:10;13.70;99.90
63931;DHT22;50111;48.114;-2.066;2022-10-31T09:20:36;13.70;99.90
63931;DHT22;50111;48.114;-2.066;2022-10-31T09:23:09;13.70;99.90
63931;DHT22;50111;48.114;-2.066;2022-10-31T09:25:35;13.70;99.90
63931;DHT22;50111;48.114;-2.066;2022-10-31T09:28:01;13.80;99.90
63931;DHT22;50111;48.114;-2.066;2022-10-31T09:30:28;13.80;99.90
63931;DHT22;50111;48.114;-2.066;2022-10-31T09:35:22;13.90;99.90
63931;DHT22;50111;48.114;-2.066;2022-10-31T09:37:53;13.90;99.90
63931;DHT22;50111;48.114;-2.066;2022-10-31T09:40:18;13.90;99.90
63931;DHT22;50111;48.114;-2.066;2022-10-31T09:42:47;13.90;99.90
63931;DHT22;50111;48.114;-2.066;2022-10-31T09:45:21;13.90;99.90
63931;DHT22;50111;48.114;-2.066;2022-10-31T09:48:08;13.90;99.90
63931;DHT22;50111;48.114;-2.066;2022-10-31T09:53:02;13.80;99.90
63931;DHT22;50111;48.114;-2.066;2022-10-31T09:55:36;13.80;99.90
63931;DHT22;50111;48.114;-2.066;2022-10-31T09:58:02;13.90;99.90
63931;DHT22;50111;48.114;-2.066;2022-10-31T10:00:28;14.00;99.90
63931;DHT22;50111;48.114;-2.066;2022-10-31T10:05:37;14.10;99.90
63931;DHT22;50111;48.114;-2.066;2022-10-31T10:08:12;14.30;99.90
63931;DHT22;50111;48.114;-2.066;2022-10-31T10:28:38;15.90;99.90
63931;DHT22;50111;48.114;-2.066;2022-10-31T10:31:15;15.80;99.90
63931;DHT22;50111;48.114;-2.066;2022-10-31T10:36:17;15.50;99.90
63931;DHT22;50111;48.114;-2.066;2022-10-31T10:41:16;15.40;99.90
63931;DHT22;50111;48.114;-2.066;2022-10-31T10:43:42;15.40;99.90
63931;DHT22;50111;48.114;-2.066;2022-10-31T10:51:23;15.50;99.90
63931;DHT22;50111;48.114;-2.066;2022-10-31T10:59:06;15.80;99.90
63931;DHT22;50111;48.114;-2.066;2022-10-31T11:01:31;15.80;99.90
63931;DHT22;50111;48.114;-2.066;2022-10-31T11:03:57;15.80;99.90
63931;DHT22;50111;48.114;-2.066;2022-10-31T11:06:25;16.10;99.90
63931;DHT22;50111;48.114;-2.066;2022-10-31T11:08:51;16.20;99.90
63931;DHT22;50111;48.114;-2.066;2022-10-31T11:13:46;16.10;99.90
63931;DHT22;50111;48.114;-2.066;2022-10-31T11:16:32;16.00;99.90
63931;DHT22;50111;48.114;-2.066;2022-10-31T11:19:08;16.10;99.90
63931;DHT22;50111;48.114;-2.066;2022-10-31T11:21:35;16.10;99.90
63931;DHT22;50111;48.114;-2.066;2022-10-31T11:26:29;16.10;99.90
63931;DHT22;50111;48.114;-2.066;2022-10-31T11:28:58;16.30;99.90
63931;DHT22;50111;48.114;-2.066;2022-10-31T11:31:24;16.30;99.90
63931;DHT22;50111;48.114;-2.066;2022-10-31T11:33:53;16.30;99.90
63931;DHT22;50111;48.114;-2.066;2022-10-31T11:36:25;16.20;99.90
63931;DHT22;50111;48.114;-2.066;2022-10-31T11:38:51;16.10;99.90
63931;DHT22;50111;48.114;-2.066;2022-10-31T11:41:17;16.00;99.90
63931;DHT22;50111;48.114;-2.066;2022-10-31T11:44:18;15.90;99.90
63931;DHT22;50111;48.114;-2.066;2022-10-31T11:46:54;15.80;99.90
63931;DHT22;50111;48.114;-2.066;2022-10-31T11:51:49;15.90;99.90
63931;DHT22;50111;48.114;-2.066;2022-10-31T11:55:00;16.00;99.90
63931;DHT22;50111;48.114;-2.066;2022-10-31T11:57:05;16.10;99.90
63931;DHT22;50111;48.114;-2.066;2022-10-31T11:59:31;16.20;99.90
63931;DHT22;50111;48.114;-2.066;2022-10-31T12:02:00;16.30;99.90
63931;DHT22;50111;48.114;-2.066;2022-10-31T12:04:40;16.40;99.90
63931;DHT22;50111;48.114;-2.066;2022-10-31T12:07:07;16.60;99.90
63931;DHT22;50111;48.114;-2.066;2022-10-31T12:09:33;16.60;99.90
63931;DHT22;50111;48.114;-2.066;2022-10-31T12:17:25;16.60;99.90
63931;DHT22;50111;48.114;-2.066;2022-10-31T12:20:04;16.70;99.90
63931;DHT22;50111;48.114;-2.066;2022-10-31T12:25:16;16.60;99.90
63931;DHT22;50111;48.114;-2.066;2022-10-31T12:47:58;17.10;99.90
63931;DHT22;50111;48.114;-2.066;2022-10-31T12:58:26;17.10;99.90
63931;DHT22;50111;48.114;-2.066;2022-10-31T13:01:14;17.00;99.90
63931;DHT22;50111;48.114;-2.066;2022-10-31T13:06:07;16.90;99.90
63931;DHT22;50111;48.114;-2.066;2022-10-31T13:08:42;16.90;99.90
63931;DHT22;50111;48.114;-2.066;2022-10-31T13:11:11;16.80;99.90
63931;DHT22;50111;48.114;-2.066;2022-10-31T13:13:39;16.80;99.90
63931;DHT22;50111;48.114;-2.066;2022-10-31T13:18:55;16.80;99.90
63931;DHT22;50111;48.114;-2.066;2022-10-31T13:21:23;16.80;99.90
63931;DHT22;50111;48.114;-2.066;2022-10-31T13:23:50;16.70;99.90
63931;DHT22;50111;48.114;-2.066;2022-10-31T13:26:20;16.70;99.90
63931;DHT22;50111;48.114;-2.066;2022-10-31T13:29:10;16.80;99.90
63931;DHT22;50111;48.114;-2.066;2022-10-31T13:31:32;16.80;99.90
63931;DHT22;50111;48.114;-2.066;2022-10-31T13:34:01;16.80;99.90
63931;DHT22;50111;48.114;-2.066;2022-10-31T13:36:34;16.80;99.90
63931;DHT22;50111;48.114;-2.066;2022-10-31T13:39:13;16.80;99.90
63931;DHT22;50111;48.114;-2.066;2022-10-31T13:41:54;16.90;99.90
63931;DHT22;50111;48.114;-2.066;2022-10-31T13:44:24;16.90;99.90
63931;DHT22;50111;48.114;-2.066;2022-10-31T13:46:50;16.90;99.90
63931;DHT22;50111;48.114;-2.066;2022-10-31T13:49:21;16.90;99.90
63931;DHT22;50111;48.114;-2.066;2022-10-31T13:51:48;16.90;99.90
63931;DHT22;50111;48.114;-2.066;2022-10-31T13:54:21;16.90;99.90
63931;DHT22;50111;48.114;-2.066;2022-10-31T13:56:50;16.90;99.90
63931;DHT22;50111;48.114;-2.066;2022-10-31T14:01:45;16.90;99.90
63931;DHT22;50111;48.114;-2.066;2022-10-31T14:04:19;16.90;99.90
63931;DHT22;50111;48.114;-2.066;2022-10-31T14:06:58;16.90;99.90
63931;DHT22;50111;48.114;-2.066;2022-10-31T14:09:36;16.90;99.90
63931;DHT22;50111;48.114;-2.066;2022-10-31T14:12:05;16.90;99.90
63931;DHT22;50111;48.114;-2.066;2022-10-31T14:14:33;16.90;99.90
63931;DHT22;50111;48.114;-2.066;2022-10-31T14:16:59;16.90;99.90
63931;DHT22;50111;48.114;-2.066;2022-10-31T14:19:25;16.90;99.90
63931;DHT22;50111;48.114;-2.066;2022-10-31T14:21:51;16.90;99.90
63931;DHT22;50111;48.114;-2.066;2022-10-31T14:26:52;16.80;99.90
63931;DHT22;50111;48.114;-2.066;2022-10-31T14:31:45;16.70;99.90
63931;DHT22;50111;48.114;-2.066;2022-10-31T14:34:33;16.70;99.90
63931;DHT22;50111;48.114;-2.066;2022-10-31T14:37:37;16.70;99.90
63931;DHT22;50111;48.114;-2.066;2022-10-31T14:42:28;16.70;99.90
63931;DHT22;50111;48.114;-2.066;2022-10-31T14:45:34;16.70;99.90
63931;DHT22;50111;48.114;-2.066;2022-10-31T14:53:03;16.60;99.90
63931;DHT22;50111;48.114;-2.066;2022-10-31T14:55:29;16.60;99.90
63931;DHT22;50111;48.114;-2.066;2022-10-31T14:58:01;16.50;99.90
63931;DHT22;50111;48.114;-2.066;2022-10-31T15:00:28;16.40;99.90
63931;DHT22;50111;48.114;-2.066;2022-10-31T15:05:35;16.40;99.90
63931;DHT22;50111;48.114;-2.066;2022-10-31T15:08:12;16.40;99.90
63931;DHT22;50111;48.114;-2.066;2022-10-31T15:10:38;16.50;99.90
63931;DHT22;50111;48.114;-2.066;2022-10-31T15:13:20;16.50;99.90
63931;DHT22;50111;48.114;-2.066;2022-10-31T15:15:46;16.50;99.90
63931;DHT22;50111;48.114;-2.066;2022-10-31T15:18:20;16.50;99.90
63931;DHT22;50111;48.114;-2.066;2022-10-31T15:20:46;16.50;99.90
63931;DHT22;50111;48.114;-2.066;2022-10-31T15:23:25;16.50;99.90
63931;DHT22;50111;48.114;-2.066;2022-10-31T15:25:57;16.50;99.90
63931;DHT22;50111;48.114;-2.066;2022-10-31T15:28:24;16.50;99.90
63931;DHT22;50111;48.114;-2.066;2022-10-31T15:30:50;16.40;99.90
63931;DHT22;50111;48.114;-2.066;2022-10-31T15:33:21;16.40;99.90
63931;DHT22;50111;48.114;-2.066;2022-10-31T15:35:56;16.40;99.90
63931;DHT22;50111;48.114;-2.066;2022-10-31T15:38:23;16.30;99.90
63931;DHT22;50111;48.114;-2.066;2022-10-31T15:40:58;16.20;99.90
63931;DHT22;50111;48.114;-2.066;2022-10-31T15:43:24;16.20;99.90
63931;DHT22;50111;48.114;-2.066;2022-10-31T15:45:50;16.10;99.90
63931;DHT22;50111;48.114;-2.066;2022-10-31T15:48:21;16.10;99.90
63931;DHT22;50111;48.114;-2.066;2022-10-31T15:50:48;16.00;99.90
63931;DHT22;50111;48.114;-2.066;2022-10-31T15:53:16;16.00;99.90
63931;DHT22;50111;48.114;-2.066;2022-10-31T15:55:55;16.00;99.90
63931;DHT22;50111;48.114;-2.066;2022-10-31T15:58:21;16.00;99.90
63931;DHT22;50111;48.114;-2.066;2022-10-31T16:01:53;15.90;99.90
63931;DHT22;50111;48.114;-2.066;2022-10-31T16:03:42;15.80;99.90
63931;DHT22;50111;48.114;-2.066;2022-10-31T16:06:18;15.70;99.90
63931;DHT22;50111;48.114;-2.066;2022-10-31T16:08:45;15.60;99.90
63931;DHT22;50111;48.114;-2.066;2022-10-31T16:13:40;15.60;99.90
63931;DHT22;50111;48.114;-2.066;2022-10-31T16:16:13;15.60;99.90
63931;DHT22;50111;48.114;-2.066;2022-10-31T16:18:40;15.60;99.90
63931;DHT22;50111;48.114;-2.066;2022-10-31T16:21:06;15.60;99.90
63931;DHT22;50111;48.114;-2.066;2022-10-31T16:23:32;15.50;99.90
63931;DHT22;50111;48.114;-2.066;2022-10-31T16:25:58;15.50;99.90
63931;DHT22;50111;48.114;-2.066;2022-10-31T16:28:25;15.50;99.90
63931;DHT22;50111;48.114;-2.066;2022-10-31T16:30:51;15.50;99.90
63931;DHT22;50111;48.114;-2.066;2022-10-31T16:33:25;15.50;99.90
63931;DHT22;50111;48.114;-2.066;2022-10-31T16:35:51;15.50;99.90
63931;DHT22;50111;48.114;-2.066;2022-10-31T16:38:16;15.50;99.90
63931;DHT22;50111;48.114;-2.066;2022-10-31T16:40:42;15.40;99.90
63931;DHT22;50111;48.114;-2.066;2022-10-31T16:43:09;15.50;99.90
63931;DHT22;50111;48.114;-2.066;2022-10-31T16:45:36;15.50;99.90
63931;DHT22;50111;48.114;-2.066;2022-10-31T16:48:05;15.40;99.90
63931;DHT22;50111;48.114;-2.066;2022-10-31T16:50:31;15.50;99.90
63931;DHT22;50111;48.114;-2.066;2022-10-31T16:52:56;15.50;99.90
63931;DHT22;50111;48.114;-2.066;2022-10-31T16:55:22;15.50;99.90
63931;DHT22;50111;48.114;-2.066;2022-10-31T16:57:51;15.50;99.90
63931;DHT22;50111;48.114;-2.066;2022-10-31T17:00:24;15.50;99.90
63931;DHT22;50111;48.114;-2.066;2022-10-31T17:02:51;15.50;99.90
63931;DHT22;50111;48.114;-2.066;2022-10-31T17:05:18;15.50;99.90
63931;DHT22;50111;48.114;-2.066;2022-10-31T17:07:43;15.50;99.90
63931;DHT22;50111;48.114;-2.066;2022-10-31T17:10:09;15.50;99.90
63931;DHT22;50111;48.114;-2.066;2022-10-31T17:12:36;15.50;99.90
63931;DHT22;50111;48.114;-2.066;2022-10-31T17:15:02;15.50;99.90
63931;DHT22;50111;48.114;-2.066;2022-10-31T17:17:27;15.50;99.90
63931;DHT22;50111;48.114;-2.066;2022-10-31T17:19:53;15.50;99.90
63931;DHT22;50111;48.114;-2.066;2022-10-31T17:22:18;15.60;99.90
63931;DHT22;50111;48.114;-2.066;2022-10-31T17:24:44;15.50;99.90
63931;DHT22;50111;48.114;-2.066;2022-10-31T17:27:09;15.50;99.90
63931;DHT22;50111;48.114;-2.066;2022-10-31T17:29:35;15.50;99.90
63931;DHT22;50111;48.114;-2.066;2022-10-31T17:32:00;15.50;99.90
63931;DHT22;50111;48.114;-2.066;2022-10-31T17:34:28;15.50;99.90
63931;DHT22;50111;48.114;-2.066;2022-10-31T17:36:53;15.50;99.90